createdAt,value
2018-01-22T00:00:07.212Z,9.77
2018-01-22T00:02:45.614Z,10.18
2018-01-22T00:05:13.148Z,8.90
2018-01-22T00:07:40.675Z,8.02
2018-01-22T00:10:08.612Z,8.80
2018-01-22T00:12:36.044Z,7.85
2018-01-22T00:15:03.472Z,8.35
2018-01-22T00:17:31.696Z,7.87
2018-01-22T00:19:59.492Z,7.70
2018-01-22T00:22:26.922Z,7.85
2018-01-22T00:24:54.352Z,7.72
2018-01-22T00:27:21.875Z,8.18
2018-01-22T00:29:49.334Z,7.50
2018-01-22T00:32:16.760Z,7.25
2018-01-22T00:34:44.217Z,7.47
2018-01-22T00:37:11.653Z,7.97
2018-01-22T00:39:39.116Z,8.23
2018-01-22T00:42:06.556Z,7.47
2018-01-22T00:44:34.964Z,7.45
2018-01-22T00:47:02.398Z,7.50
2018-01-22T00:49:30.924Z,7.55
2018-01-22T00:51:58.389Z,7.72
2018-01-22T00:54:26.016Z,7.40
2018-01-22T00:56:53.461Z,7.97
2018-01-22T00:59:20.887Z,7.62
2018-01-22T01:01:49.232Z,7.85
2018-01-22T01:04:16.720Z,8.10
2018-01-22T01:06:44.912Z,7.45
2018-01-22T01:09:12.344Z,7.75
2018-01-22T01:11:40.573Z,7.50
2018-01-22T01:14:08.025Z,7.70
2018-01-22T01:16:35.455Z,7.62
2018-01-22T01:19:03.787Z,7.18
2018-01-22T01:21:31.239Z,7.62
2018-01-22T01:23:58.672Z,6.90
2018-01-22T01:26:26.174Z,6.75
2018-01-22T01:28:53.589Z,7.10
2018-01-22T01:31:21.044Z,6.85
2018-01-22T01:33:48.640Z,6.70
2018-01-22T01:36:16.228Z,6.40
2018-01-22T01:38:44.444Z,6.40
2018-01-22T01:41:11.874Z,6.90
2018-01-22T01:43:39.601Z,6.62
2018-01-22T01:46:07.031Z,6.55
2018-01-22T01:48:34.506Z,6.95
2018-01-22T01:51:02.652Z,6.50
2018-01-22T01:53:30.075Z,6.95
2018-01-22T01:55:58.288Z,7.10
2018-01-22T01:58:25.952Z,6.62
2018-01-22T02:00:55.384Z,7.55
2018-01-22T02:03:22.836Z,7.07
2018-01-22T02:05:50.268Z,6.45
2018-01-22T02:08:19.661Z,6.50
2018-01-22T02:10:47.089Z,6.53
2018-01-22T02:13:15.311Z,7.15
2018-01-22T02:15:42.787Z,6.70
2018-01-22T02:18:10.344Z,6.32
2018-01-22T02:20:37.776Z,6.60
2018-01-22T02:23:05.244Z,6.03
2018-01-22T02:25:32.672Z,6.80
2018-01-22T02:28:00.104Z,6.80
2018-01-22T02:30:28.331Z,6.80
2018-01-22T02:32:55.764Z,6.45
2018-01-22T02:35:23.329Z,5.80
2018-01-22T02:37:50.757Z,7.15
2018-01-22T02:40:18.980Z,6.70
2018-01-22T02:42:46.421Z,6.85
2018-01-22T02:45:14.100Z,6.75
2018-01-22T02:47:41.534Z,6.40
2018-01-22T02:50:09.044Z,6.00
2018-01-22T02:52:36.989Z,5.80
2018-01-22T02:55:04.427Z,6.75
2018-01-22T02:57:31.856Z,5.70
2018-01-22T03:00:00.107Z,6.60
2018-01-22T03:02:27.516Z,5.87
2018-01-22T03:04:54.939Z,5.78
2018-01-22T03:07:23.223Z,5.50
2018-01-22T03:09:50.656Z,5.10
2018-01-22T03:12:18.108Z,5.68
2018-01-22T03:14:45.537Z,5.35
2018-01-22T03:17:13.028Z,5.65
2018-01-22T03:19:40.457Z,5.10
2018-01-22T03:22:07.994Z,4.82
2018-01-22T03:24:35.420Z,5.32
2018-01-22T03:27:03.639Z,4.43
2018-01-22T03:29:32.039Z,5.03
2018-01-22T03:31:59.676Z,5.22
2018-01-22T03:34:27.120Z,4.90
2018-01-22T03:36:54.593Z,4.62
2018-01-22T03:39:23.080Z,4.68
2018-01-22T03:41:50.508Z,4.40
2018-01-22T03:44:17.968Z,4.40
2018-01-22T03:46:45.388Z,4.20
2018-01-22T03:49:12.883Z,4.70
2018-01-22T03:51:40.312Z,5.00
2018-01-22T03:54:08.583Z,4.90
2018-01-22T03:56:36.775Z,4.90
2018-01-22T03:59:04.204Z,4.35
2018-01-22T04:01:31.753Z,4.60
2018-01-22T04:03:59.183Z,4.87
2018-01-22T04:06:26.896Z,4.68
2018-01-22T04:08:55.092Z,4.80
2018-01-22T04:11:22.520Z,4.87
2018-01-22T04:13:49.972Z,4.80
2018-01-22T04:16:17.405Z,4.70
2018-01-22T04:18:44.915Z,5.03
2018-01-22T04:21:13.132Z,4.68
2018-01-22T04:23:40.563Z,4.85
2018-01-22T04:26:08.360Z,4.97
2018-01-22T04:28:35.787Z,4.80
2018-01-22T04:31:03.220Z,4.60
2018-01-22T04:33:31.449Z,4.72
2018-01-22T04:35:58.885Z,5.10
2018-01-22T04:38:26.464Z,4.65
2018-01-22T04:40:53.967Z,5.18
2018-01-22T04:43:26.398Z,4.95
2018-01-22T04:45:53.823Z,4.80
2018-01-22T04:48:21.312Z,4.53
2018-01-22T04:50:48.766Z,5.15
2018-01-22T04:53:16.540Z,4.85
2018-01-22T04:55:43.973Z,4.93
2018-01-22T04:58:12.241Z,4.40
2018-01-22T05:00:48.876Z,4.62
2018-01-22T05:03:19.947Z,4.87
2018-01-22T05:05:47.372Z,4.78
2018-01-22T05:08:14.803Z,4.93
2018-01-22T05:10:42.263Z,4.72
2018-01-22T05:13:09.695Z,4.40
2018-01-22T05:15:37.148Z,4.90
2018-01-22T05:18:04.577Z,4.25
2018-01-22T05:20:32.852Z,4.30
2018-01-22T05:23:01.075Z,4.85
2018-01-22T05:25:28.970Z,4.57
2018-01-22T05:27:56.378Z,4.25
2018-01-22T05:30:23.800Z,4.47
2018-01-22T05:32:52.050Z,3.80
2018-01-22T05:35:19.480Z,4.20
2018-01-22T05:37:46.911Z,4.20
2018-01-22T05:40:14.712Z,3.47
2018-01-22T05:42:42.436Z,3.60
2018-01-22T05:45:09.864Z,3.30
2018-01-22T05:47:37.376Z,3.30
2018-01-22T05:50:06.018Z,3.60
2018-01-22T05:52:34.215Z,3.10
2018-01-22T05:55:02.220Z,4.45
2018-01-22T05:57:29.661Z,3.78
2018-01-22T05:59:57.852Z,3.20
2018-01-22T06:02:25.312Z,3.55
2018-01-22T06:04:52.771Z,3.78
2018-01-22T06:07:20.208Z,3.70
2018-01-22T06:09:47.932Z,3.45
2018-01-22T06:12:16.136Z,3.60
2018-01-22T06:14:43.567Z,3.80
2018-01-22T06:17:11.886Z,3.62
2018-01-22T06:19:39.665Z,3.80
2018-01-22T06:22:08.061Z,3.65
2018-01-22T06:24:35.487Z,4.57
2018-01-22T06:27:03.104Z,4.75
2018-01-22T06:29:31.303Z,4.40
2018-01-22T06:31:58.736Z,4.32
2018-01-22T06:34:27.125Z,4.45
2018-01-22T06:36:55.323Z,4.75
2018-01-22T06:39:22.786Z,4.40
2018-01-22T06:41:50.265Z,4.50
2018-01-22T06:44:17.704Z,4.90
2018-01-22T06:46:45.979Z,4.32
2018-01-22T06:49:13.393Z,4.65
2018-01-22T06:51:41.616Z,4.40
2018-01-22T06:54:09.072Z,4.87
2018-01-22T06:56:36.573Z,5.30
2018-01-22T06:59:04.015Z,14.20
2018-01-22T07:01:31.452Z,9.90
2018-01-22T07:03:58.998Z,6.40
2018-01-22T07:06:26.441Z,20.92
2018-01-22T07:08:53.863Z,5.70
2018-01-22T07:11:21.323Z,17.12
2018-01-22T07:13:49.713Z,16.33
2018-01-22T07:16:17.916Z,30.45
2018-01-22T07:18:45.458Z,56.05
2018-01-22T07:21:13.664Z,68.03
2018-01-22T07:23:42.164Z,36.08
2018-01-22T07:26:09.776Z,19.12
2018-01-22T07:28:37.984Z,35.67
2018-01-22T07:31:05.415Z,22.50
2018-01-22T07:33:32.885Z,6.05
2018-01-22T07:36:00.324Z,6.35
2018-01-22T07:38:28.787Z,6.93
2018-01-22T07:40:57.011Z,11.10
2018-01-22T07:43:24.452Z,6.20
2018-01-22T07:45:52.091Z,12.90
2018-01-22T07:48:20.316Z,8.07
2018-01-22T07:50:48.740Z,7.35
2018-01-22T07:53:16.173Z,7.68
2018-01-22T07:55:43.628Z,12.82
2018-01-22T07:58:11.470Z,6.50
2018-01-22T08:00:38.908Z,25.50
2018-01-22T08:03:07.341Z,13.55
2018-01-22T08:05:35.080Z,8.10
2018-01-22T08:08:02.553Z,16.90
2018-01-22T08:10:29.983Z,7.68
2018-01-22T08:12:57.440Z,8.85
2018-01-22T08:15:24.875Z,8.82
2018-01-22T08:17:52.416Z,8.07
2018-01-22T08:20:20.627Z,8.20
2018-01-22T08:22:48.065Z,9.43
2018-01-22T08:25:15.600Z,15.20
2018-01-22T08:27:43.800Z,9.77
2018-01-22T08:30:11.304Z,15.65
2018-01-22T08:32:39.072Z,12.52
2018-01-22T08:35:06.471Z,13.48
2018-01-22T08:37:33.907Z,10.98
2018-01-22T08:40:02.333Z,9.00
2018-01-22T08:42:29.768Z,10.80
2018-01-22T08:44:57.435Z,10.23
2018-01-22T08:47:24.868Z,10.18
2018-01-22T08:49:53.352Z,10.75
2018-01-22T08:52:21.856Z,9.45
2018-01-22T08:54:49.326Z,9.75
2018-01-22T08:57:16.763Z,10.45
2018-01-22T08:59:44.688Z,10.50
2018-01-22T09:02:12.122Z,9.18
2018-01-22T09:04:39.559Z,10.45
2018-01-22T09:07:07.119Z,15.75
2018-01-22T09:09:34.589Z,25.10
2018-01-22T09:12:02.052Z,12.15
2018-01-22T09:14:29.521Z,17.12
2018-01-22T09:16:59.364Z,11.80
2018-01-22T09:19:26.809Z,13.80
2018-01-22T09:21:54.255Z,14.18
2018-01-22T09:24:22.096Z,16.00
2018-01-22T09:26:49.541Z,15.50
2018-01-22T09:29:16.988Z,16.52
2018-01-22T09:31:44.448Z,17.62
2018-01-22T09:34:11.879Z,21.83
2018-01-22T09:36:55.056Z,21.17
2018-01-22T09:39:25.196Z,19.40
2018-01-22T09:41:53.155Z,15.82
2018-01-22T09:44:20.597Z,16.60
2018-01-22T09:46:48.041Z,16.33
2018-01-22T09:49:16.769Z,15.63
2018-01-22T09:51:44.421Z,18.17
2018-01-22T09:54:11.904Z,19.08
2018-01-22T09:56:39.472Z,17.40
2018-01-22T09:59:06.911Z,23.12
2018-01-22T10:01:34.371Z,26.02
2018-01-22T10:04:01.831Z,20.00
2018-01-22T10:06:29.292Z,17.65
2018-01-22T10:08:56.728Z,23.35
2018-01-22T10:11:24.286Z,23.62
2018-01-22T10:13:51.728Z,21.17
2018-01-22T10:16:19.938Z,22.50
2018-01-22T10:18:48.772Z,21.08
2018-01-22T10:21:16.234Z,25.92
2018-01-22T10:23:43.664Z,22.70
2018-01-22T10:26:11.912Z,21.60
2018-01-22T10:28:39.344Z,24.63
2018-01-22T10:31:06.816Z,23.10
2018-01-22T10:33:34.256Z,27.20
2018-01-22T10:36:05.912Z,23.95
2018-01-22T10:38:33.363Z,21.00
2018-01-22T10:41:01.131Z,20.27
2018-01-22T10:43:28.571Z,22.25
2018-01-22T10:45:56.016Z,20.90
2018-01-22T10:48:24.336Z,22.75
2018-01-22T10:50:51.781Z,31.50
2018-01-22T10:53:19.290Z,54.10
2018-01-22T10:55:46.725Z,40.00
2018-01-22T10:58:14.184Z,59.00
2018-01-22T11:00:41.615Z,30.42
2018-01-22T11:03:10.420Z,32.20
2018-01-22T11:05:37.860Z,30.40
2018-01-22T11:08:05.308Z,28.30
2018-01-22T11:10:32.900Z,28.20
2018-01-22T11:13:00.336Z,27.25
2018-01-22T11:15:33.627Z,28.17
2018-01-22T11:18:01.073Z,30.20
2018-01-22T11:20:28.548Z,28.08
2018-01-22T11:22:56.001Z,28.27
2018-01-22T11:25:23.464Z,29.50
2018-01-22T11:27:51.237Z,29.12
2018-01-22T11:30:19.652Z,33.03
2018-01-22T11:32:47.091Z,32.20
2018-01-22T11:35:14.777Z,27.05
2018-01-22T11:37:42.210Z,30.70
2018-01-22T11:40:09.649Z,29.40
2018-01-22T11:42:37.112Z,30.02
2018-01-22T11:45:04.556Z,27.75
2018-01-22T11:47:38.996Z,31.35
2018-01-22T11:50:06.432Z,29.75
2018-01-22T11:52:33.952Z,28.95
2018-01-22T11:55:02.165Z,31.08
2018-01-22T11:57:29.628Z,27.13
2018-01-22T11:59:57.076Z,25.60
2018-01-22T12:02:24.516Z,25.45
2018-01-22T12:04:52.424Z,30.23
2018-01-22T12:07:19.860Z,28.42
2018-01-22T12:09:47.306Z,28.52
2018-01-22T12:12:14.900Z,27.52
2018-01-22T12:14:42.344Z,25.12
2018-01-22T12:17:09.823Z,25.85
2018-01-22T12:19:40.376Z,27.65
2018-01-22T12:22:08.589Z,25.10
2018-01-22T12:24:36.022Z,23.30
2018-01-22T12:27:06.916Z,23.65
2018-01-22T12:29:34.360Z,23.15
2018-01-22T12:32:04.693Z,22.73
2018-01-22T12:34:32.126Z,21.23
2018-01-22T12:36:59.555Z,25.00
2018-01-22T12:39:27.876Z,25.02
2018-01-22T12:41:55.335Z,30.33
2018-01-22T12:44:22.787Z,24.58
2018-01-22T12:46:51.559Z,26.90
2018-01-22T12:49:19.004Z,28.48
2018-01-22T12:51:47.207Z,24.73
2018-01-22T12:54:14.800Z,24.77
2018-01-22T12:56:42.269Z,31.45
2018-01-22T12:59:09.712Z,31.40
2018-01-22T13:01:37.491Z,27.23
2018-01-22T13:04:05.000Z,28.80
2018-01-22T13:06:33.209Z,27.17
2018-01-22T13:09:00.664Z,19.37
2018-01-22T13:11:28.100Z,19.50
2018-01-22T13:13:55.982Z,22.80
2018-01-22T13:16:23.421Z,26.08
2018-01-22T13:18:50.872Z,25.30
2018-01-22T13:21:18.861Z,17.20
2018-01-22T13:23:46.301Z,20.42
2018-01-22T13:26:13.742Z,17.45
2018-01-22T13:28:41.221Z,16.98
2018-01-22T13:31:08.660Z,19.45
2018-01-22T13:33:36.160Z,19.85
2018-01-22T13:36:03.600Z,17.75
2018-01-22T13:38:31.064Z,18.33
2018-01-22T13:41:04.239Z,27.25
2018-01-22T13:43:31.668Z,43.95
2018-01-22T13:45:59.128Z,25.75
2018-01-22T13:48:31.889Z,18.62
2018-01-22T13:51:00.113Z,15.07
2018-01-22T13:53:27.552Z,16.35
2018-01-22T13:55:55.014Z,16.45
2018-01-22T13:58:22.452Z,19.58
2018-01-22T14:00:50.676Z,17.50
2018-01-22T14:03:18.149Z,24.60
2018-01-22T14:05:45.577Z,32.72
2018-01-22T14:08:13.189Z,26.40
2018-01-22T14:10:41.396Z,24.00
2018-01-22T14:13:09.291Z,21.40
2018-01-22T14:15:36.732Z,13.95
2018-01-22T14:18:04.200Z,15.15
2018-01-22T14:20:31.667Z,17.23
2018-01-22T14:22:59.133Z,15.80
2018-01-22T14:25:31.712Z,15.65
2018-01-22T14:28:00.097Z,14.35
2018-01-22T14:30:27.731Z,14.02
2018-01-22T14:32:55.169Z,13.88
2018-01-22T14:35:22.635Z,14.95
2018-01-22T14:37:50.184Z,13.13
2018-01-22T14:40:17.624Z,13.93
2018-01-22T14:42:47.487Z,13.80
2018-01-22T14:45:20.805Z,12.02
2018-01-22T14:47:49.671Z,12.52
2018-01-22T14:50:17.162Z,13.95
2018-01-22T14:52:44.604Z,12.80
2018-01-22T14:55:14.504Z,13.35
2018-01-22T14:57:44.425Z,12.82
2018-01-22T15:00:12.064Z,12.35
2018-01-22T15:02:39.530Z,12.50
2018-01-22T15:05:06.997Z,12.60
2018-01-22T15:07:34.469Z,18.37
2018-01-22T15:10:02.319Z,14.23
2018-01-22T15:12:29.815Z,13.73
2018-01-22T15:14:58.020Z,13.30
2018-01-22T15:17:25.827Z,15.57
2018-01-22T15:19:53.297Z,14.27
2018-01-22T15:22:20.748Z,14.77
2018-01-22T15:24:48.321Z,14.75
2018-01-22T15:27:15.766Z,14.87
2018-01-22T15:29:43.204Z,15.70
2018-01-22T15:32:10.676Z,14.90
2018-01-22T15:34:38.116Z,13.68
2018-01-22T15:37:06.586Z,14.85
2018-01-22T15:39:34.037Z,16.30
2018-01-22T15:42:01.605Z,18.02
2018-01-22T15:44:29.044Z,18.77
2018-01-22T15:46:56.731Z,15.30
2018-01-22T15:49:24.835Z,15.93
2018-01-22T15:51:52.272Z,19.25
2018-01-22T15:54:19.717Z,23.23
2018-01-22T15:56:47.171Z,24.20
2018-01-22T15:59:14.644Z,19.95
2018-01-22T16:01:42.088Z,20.15
2018-01-22T16:04:09.540Z,20.33
2018-01-22T16:06:37.149Z,26.27
2018-01-22T16:09:04.975Z,29.92
2018-01-22T16:11:32.411Z,37.40
2018-01-22T16:14:00.843Z,20.23
2018-01-22T16:16:28.619Z,16.12
2018-01-22T16:18:56.056Z,18.95
2018-01-22T16:21:23.937Z,18.42
2018-01-22T16:23:51.504Z,18.42
2018-01-22T16:26:18.939Z,13.27
2018-01-22T16:28:46.416Z,15.48
2018-01-22T16:31:13.864Z,12.68
2018-01-22T16:33:41.326Z,15.48
2018-01-22T16:36:08.772Z,17.67
2018-01-22T16:38:37.552Z,15.30
2018-01-22T16:41:04.997Z,17.23
2018-01-22T16:43:32.427Z,17.37
2018-01-22T16:46:00.184Z,23.73
2018-01-22T16:48:28.389Z,20.85
2018-01-22T16:50:56.137Z,22.50
2018-01-22T16:53:23.609Z,20.70
2018-01-22T16:55:58.897Z,16.95
2018-01-22T16:58:26.340Z,15.95
2018-01-22T17:00:53.776Z,19.65
2018-01-22T17:03:21.488Z,24.25
2018-01-22T17:05:49.697Z,19.25
2018-01-22T17:08:17.139Z,20.27
2018-01-22T17:10:48.751Z,24.40
2018-01-22T17:13:16.188Z,23.00
2018-01-22T17:15:43.704Z,21.27
2018-01-22T17:18:11.163Z,19.85
2018-01-22T17:20:39.652Z,37.72
2018-01-22T17:23:07.440Z,31.50
2018-01-22T17:25:34.882Z,26.73
2018-01-22T17:28:03.317Z,40.95
2018-01-22T17:30:30.780Z,31.60
2018-01-22T17:32:58.307Z,23.00
2018-01-22T17:35:25.795Z,47.47
2018-01-22T17:37:53.632Z,22.35
2018-01-22T17:40:21.072Z,23.30
2018-01-22T17:42:49.312Z,19.45
2018-01-22T17:45:17.512Z,23.75
2018-01-22T17:47:46.325Z,46.25
2018-01-22T17:50:13.784Z,32.90
2018-01-22T17:52:41.326Z,38.38
2018-01-22T17:55:08.760Z,26.52
2018-01-22T17:57:36.193Z,32.72
2018-01-22T18:00:03.796Z,24.27
2018-01-22T18:02:31.232Z,22.30
2018-01-22T18:04:59.469Z,20.77
2018-01-22T18:07:26.957Z,20.33
2018-01-22T18:09:55.157Z,15.98
2018-01-22T18:12:22.609Z,17.98
2018-01-22T18:14:50.068Z,24.27
2018-01-22T18:17:17.536Z,31.48
2018-01-22T18:19:45.894Z,19.25
2018-01-22T18:25:03.796Z,17.20
2018-01-22T18:27:31.236Z,19.30
2018-01-22T18:29:58.896Z,20.37
2018-01-22T18:32:26.336Z,58.45
2018-01-22T18:34:54.667Z,20.77
2018-01-22T18:37:22.519Z,27.35
2018-01-22T18:39:49.980Z,20.73
2018-01-22T18:42:17.434Z,27.40
2018-01-22T18:44:49.797Z,49.55
2018-01-22T18:47:17.233Z,26.02
2018-01-22T18:49:44.667Z,26.30
2018-01-22T18:52:12.140Z,16.50
2018-01-22T18:54:39.620Z,17.70
2018-01-22T18:57:07.251Z,21.87
2018-01-22T18:59:35.689Z,20.75
2018-01-22T19:02:03.160Z,18.30
2018-01-22T19:04:30.600Z,18.83
2018-01-22T19:06:58.056Z,20.55
2018-01-22T19:09:25.517Z,28.52
2018-01-22T19:11:52.967Z,20.67
2018-01-22T19:14:20.405Z,25.55
2018-01-22T19:16:48.183Z,26.55
2018-01-22T19:19:15.620Z,31.92
2018-01-22T19:21:43.090Z,33.88
2018-01-22T19:24:10.532Z,25.45
2018-01-22T19:26:38.049Z,25.12
2018-01-22T19:29:05.537Z,19.50
2018-01-22T19:31:32.997Z,20.90
2018-01-22T19:34:01.547Z,20.30
2018-01-22T19:36:35.569Z,23.73
2018-01-22T19:39:03.924Z,20.30
2018-01-22T19:41:31.402Z,22.65
2018-01-22T19:43:58.874Z,21.60
2018-01-22T19:46:26.346Z,21.80
2018-01-22T19:48:53.821Z,21.83
2018-01-22T19:51:21.263Z,20.88
2018-01-22T19:53:48.813Z,21.85
2018-01-22T19:56:16.252Z,23.08
2018-01-22T19:58:44.448Z,25.48
2018-01-22T20:01:11.916Z,24.40
2018-01-22T20:03:39.476Z,23.25
2018-01-22T20:06:06.924Z,23.87
2018-01-22T20:08:34.360Z,22.95
2018-01-22T20:11:02.758Z,22.20
2018-01-22T20:13:30.192Z,23.90
2018-01-22T20:15:58.391Z,23.83
2018-01-22T20:18:25.847Z,23.60
2018-01-22T20:20:53.313Z,22.65
2018-01-22T20:23:20.744Z,22.85
2018-01-22T20:25:50.509Z,23.52
2018-01-22T20:28:18.708Z,23.15
2018-01-22T20:30:46.148Z,22.75
2018-01-22T20:33:13.610Z,21.17
2018-01-22T20:35:41.252Z,22.17
2018-01-22T20:38:08.693Z,21.95
2018-01-22T20:40:36.916Z,21.98
2018-01-22T20:43:04.360Z,21.48
2018-01-22T20:45:32.104Z,20.00
2018-01-22T20:47:59.544Z,20.08
2018-01-22T20:50:26.981Z,21.30
2018-01-22T20:52:54.476Z,19.92
2018-01-22T20:55:21.915Z,21.70
2018-01-22T20:57:49.361Z,23.42
2018-01-22T21:00:16.825Z,19.45
2018-01-22T21:02:44.269Z,19.85
2018-01-22T21:05:13.633Z,20.92
2018-01-22T21:07:41.076Z,20.85
2018-01-22T21:10:08.813Z,19.35
2018-01-22T21:12:36.240Z,20.48
2018-01-22T21:15:04.442Z,19.52
2018-01-22T21:17:31.913Z,20.88
2018-01-22T21:19:59.677Z,20.30
2018-01-22T21:22:27.126Z,19.80
2018-01-22T21:24:54.548Z,21.75
2018-01-22T21:27:22.913Z,20.80
2018-01-22T21:29:50.373Z,20.83
2018-01-22T21:32:17.807Z,21.15
2018-01-22T21:34:45.317Z,22.42
2018-01-22T21:37:12.752Z,20.58
2018-01-22T21:39:41.225Z,21.48
2018-01-22T21:42:08.663Z,21.48
2018-01-22T21:44:36.095Z,19.92
2018-01-22T21:47:04.728Z,20.17
2018-01-22T21:49:32.938Z,21.62
2018-01-22T21:52:00.401Z,20.48
2018-01-22T21:54:28.853Z,21.40
2018-01-22T21:56:57.052Z,20.27
2018-01-22T21:59:24.519Z,19.87
2018-01-22T22:01:52.196Z,19.95
2018-01-22T22:04:20.672Z,19.27
2018-01-22T22:06:48.132Z,19.33
2018-01-22T22:09:15.577Z,19.00
2018-01-22T22:11:44.280Z,29.02
2018-01-22T22:14:11.709Z,19.75
2018-01-22T22:16:41.191Z,18.45
2018-01-22T22:19:08.841Z,17.30
2018-01-22T22:21:39.053Z,18.12
2018-01-22T22:24:06.683Z,17.37
2018-01-22T22:26:34.129Z,17.25
2018-01-22T22:29:03.524Z,16.12
2018-01-22T22:31:31.913Z,16.48
2018-01-22T22:33:59.379Z,15.13
2018-01-22T22:36:26.829Z,15.65
2018-01-22T22:38:54.381Z,15.75
2018-01-22T22:41:22.048Z,14.90
2018-01-22T22:43:49.592Z,14.63
2018-01-22T22:46:17.216Z,14.40
2018-01-22T22:48:44.896Z,15.00
2018-01-22T22:51:13.084Z,15.80
2018-01-22T22:53:40.698Z,16.58
2018-01-22T22:56:08.119Z,14.07
2018-01-22T22:58:35.711Z,15.10
2018-01-22T23:01:03.429Z,15.02
2018-01-22T23:03:30.860Z,15.07
2018-01-22T23:05:58.336Z,15.02
2018-01-22T23:08:26.645Z,14.65
2018-01-22T23:10:54.120Z,15.25
2018-01-22T23:13:21.548Z,15.10
2018-01-22T23:15:48.984Z,15.70
2018-01-22T23:18:17.259Z,16.00
2018-01-22T23:20:45.604Z,17.58
2018-01-22T23:23:15.120Z,16.20
2018-01-22T23:25:43.599Z,16.02
2018-01-22T23:28:12.307Z,16.55
2018-01-22T23:30:41.475Z,16.45
2018-01-22T23:33:08.917Z,15.00
2018-01-22T23:35:36.713Z,16.15
2018-01-22T23:38:21.300Z,15.60
2018-01-22T23:40:49.915Z,13.65
2018-01-22T23:43:17.648Z,13.57
2018-01-22T23:45:45.981Z,14.85
2018-01-22T23:48:13.411Z,14.70
2018-01-22T23:50:40.969Z,14.43
2018-01-22T23:53:08.428Z,14.87
2018-01-22T23:55:35.855Z,14.82
2018-01-22T23:58:03.402Z,15.13
